Time;durP1;ratioP1;P1;durP2;ratioP2;P2;SDS_P1;SDS_P2;PMS_P1;PMS_P2;Temp;Humidity;BMP_temperature;BMP_pressure;BME280_temperature;BME280_humidity;BME280_pressure;Samples;Min_cycle;Max_cycle;Signal;HPM_P1;HPM_P2
2022/12/24 00:00:07;;;;;;;77.30;48.08;;;;;;;3.20;96.09;99197.56;1721835;82;21232;-87
2022/12/24 00:02:34;;;;;;;76.22;48.68;;;;;;;3.19;96.12;99195.93;1674529;84;20946;-84
2022/12/24 00:05:01;;;;;;;76.85;48.45;;;;;;;3.16;96.17;99195.55;1688330;84;20944;-84
2022/12/24 00:07:28;;;;;;;70.52;45.58;;;;;;;3.17;96.28;99191.84;1722473;82;21005;-84
2022/12/24 00:09:54;;;;;;;72.97;46.00;;;;;;;3.19;96.39;99198.59;1722482;82;21100;-86
2022/12/24 00:12:21;;;;;;;74.87;48.85;;;;;;;3.18;96.38;99192.97;1653606;84;21413;-86
2022/12/24 00:14:47;;;;;;;76.15;48.23;;;;;;;3.19;96.41;99188.47;1695454;84;20963;-86
2022/12/24 00:17:16;;;;;;;77.85;45.78;;;;;;;3.17;96.56;99186.53;1691939;84;20983;-86
2022/12/24 00:19:42;;;;;;;69.65;47.03;;;;;;;3.20;96.67;99186.12;1689790;83;21000;-86
2022/12/24 00:22:09;;;;;;;77.55;47.23;;;;;;;3.23;96.71;99184.35;1735028;81;21043;-80
2022/12/24 00:24:35;;;;;;;79.15;49.73;;;;;;;3.27;96.69;99183.70;1758115;80;21139;-83
2022/12/24 00:27:04;;;;;;;74.67;49.88;;;;;;;3.28;96.56;99180.53;1744015;81;21512;-86
2022/12/24 00:29:32;;;;;;;70.50;44.60;;;;;;;3.30;96.48;99185.95;1739266;80;21016;-83
2022/12/24 00:32:01;;;;;;;64.80;46.15;;;;;;;3.31;96.44;99190.75;1758227;80;21002;-84
2022/12/24 00:34:27;;;;;;;72.60;48.15;;;;;;;3.30;96.36;99179.82;1754548;80;21023;-81
2022/12/24 00:36:54;;;;;;;77.08;50.35;;;;;;;3.28;96.29;99179.20;1757580;81;21107;-80
2022/12/24 00:39:20;;;;;;;76.57;49.88;;;;;;;3.28;96.42;99179.20;1734642;81;21088;-83
2022/12/24 00:41:47;;;;;;;74.17;48.55;;;;;;;3.29;96.58;99183.50;1758116;80;21309;-89
2022/12/24 00:44:14;;;;;;;70.83;46.23;;;;;;;3.33;96.66;99182.03;1739057;80;21130;-89
2022/12/24 00:46:43;;;;;;;69.80;46.92;;;;;;;3.34;96.45;99193.79;1711842;81;21092;-87
2022/12/24 00:49:10;;;;;;;77.00;50.20;;;;;;;3.33;96.51;99185.51;1757778;80;21148;-90
2022/12/24 00:51:36;;;;;;;73.83;47.78;;;;;;;3.33;96.46;99178.86;1732472;80;21049;-91
2022/12/24 00:54:03;;;;;;;75.62;48.02;;;;;;;3.35;96.41;99171.50;1745308;80;20956;-90
2022/12/24 00:56:30;;;;;;;69.27;45.25;;;;;;;3.33;96.30;99169.56;1718459;81;21476;-88
2022/12/24 00:58:58;;;;;;;80.55;49.30;;;;;;;3.31;96.22;99162.31;1757516;80;21019;-87
2022/12/24 01:01:24;;;;;;;67.20;46.18;;;;;;;3.31;96.40;99157.53;1758505;80;21128;-82
2022/12/24 01:05:08;;;;;;;73.57;46.80;;;;;;;3.31;96.57;99164.17;1743932;80;20897;-86
2022/12/24 01:06:22;;;;;;;65.85;44.03;;;;;;;3.31;96.63;99150.89;1734903;81;20979;-85
2022/12/24 01:08:50;;;;;;;61.40;41.10;;;;;;;3.34;96.74;99151.27;1758059;80;21138;-93
2022/12/24 01:11:16;;;;;;;72.75;44.88;;;;;;;3.37;96.62;99150.00;1758934;81;21022;-91
2022/12/24 01:13:51;;;;;;;73.33;50.12;;;;;;;3.30;96.44;99154.06;1742981;80;20928;-87
2022/12/24 01:16:28;;;;;;;78.35;50.30;;;;;;;3.26;96.65;99154.17;1759625;80;20971;-90
2022/12/24 01:18:55;;;;;;;72.53;45.40;;;;;;;3.20;96.78;99155.56;1757824;80;21616;-89
2022/12/24 01:21:23;;;;;;;71.95;49.20;;;;;;;3.08;97.25;99157.57;1752130;80;21052;-89
2022/12/24 01:23:49;;;;;;;71.97;48.23;;;;;;;3.07;97.57;99156.45;1737812;80;21390;-91
2022/12/24 01:26:16;;;;;;;63.40;44.45;;;;;;;3.15;97.87;99159.38;1743625;80;21959;-86
2022/12/24 01:28:42;;;;;;;63.45;41.35;;;;;;;3.21;98.21;99159.86;1731966;80;21015;-87
2022/12/24 01:31:18;;;;;;;69.95;48.35;;;;;;;3.27;97.79;99162.45;1745659;80;21084;-89
2022/12/24 01:33:48;;;;;;;66.05;44.90;;;;;;;3.23;97.49;99159.11;1741572;80;20955;-92
2022/12/24 01:36:16;;;;;;;61.95;41.40;;;;;;;3.24;97.64;99168.20;1746715;81;21164;-86
2022/12/24 01:38:44;;;;;;;70.65;45.35;;;;;;;3.25;97.67;99171.67;1748057;79;20834;-86
2022/12/24 01:44:31;;;;;;;59.73;41.63;;;;;;;3.25;97.66;99160.53;1746867;80;21023;-89
2022/12/24 01:47:11;;;;;;;67.60;43.75;;;;;;;3.28;97.62;99170.72;1744820;80;21068;-89
2022/12/24 01:49:41;;;;;;;61.33;39.95;;;;;;;3.30;97.74;99163.36;1731061;80;20994;-91
2022/12/24 01:52:16;;;;;;;62.38;41.92;;;;;;;3.32;97.70;99155.97;1744748;80;21246;-91
2022/12/24 01:54:52;;;;;;;61.95;42.00;;;;;;;3.32;97.62;99154.64;1727257;80;21544;-89
2022/12/24 01:57:23;;;;;;;64.40;40.48;;;;;;;3.34;97.83;99149.94;1751488;80;21544;-86
2022/12/24 01:59:56;;;;;;;63.05;41.40;;;;;;;3.34;97.83;99149.94;1744924;82;21032;-86
2022/12/24 02:02:24;;;;;;;57.70;41.13;;;;;;;3.37;97.88;99152.66;1721992;80;21066;-85
2022/12/24 02:05:11;;;;;;;56.73;38.63;;;;;;;3.35;97.83;99146.77;1750694;80;21154;-87
2022/12/24 02:07:37;;;;;;;67.82;42.53;;;;;;;3.38;97.85;99141.01;1689961;83;21670;-83
2022/12/24 02:10:06;;;;;;;57.20;40.78;;;;;;;3.41;97.81;99146.70;1666491;82;21076;-88
2022/12/24 02:12:34;;;;;;;62.17;41.37;;;;;;;3.41;97.81;99146.70;1700142;82;21035;-88
2022/12/24 02:15:01;;;;;;;68.33;45.40;;;;;;;3.44;97.94;99148.13;1706966;82;21135;-80
2022/12/24 04:21:49;;;;;;;61.80;41.77;;;;;;;3.06;100.00;99106.52;1709251;80;26720;-88
2022/12/24 04:24:16;;;;;;;58.83;40.10;;;;;;;3.13;100.00;99102.98;1680941;84;20880;-87
2022/12/24 04:26:42;;;;;;;55.90;38.65;;;;;;;3.30;100.00;99116.05;1701255;84;21188;-87
2022/12/24 04:29:09;;;;;;;57.95;37.60;;;;;;;3.30;100.00;99116.05;1701358;84;20960;-87
2022/12/24 04:31:36;;;;;;;61.83;40.55;;;;;;;3.48;100.00;99108.92;1710972;81;21484;-86
2022/12/24 04:34:03;;;;;;;58.20;40.03;;;;;;;3.48;100.00;99108.92;1712111;83;21559;-83
2022/12/24 04:36:29;;;;;;;63.17;43.00;;;;;;;3.53;100.00;99110.92;1711869;83;21071;-87
2022/12/24 04:38:57;;;;;;;60.58;40.25;;;;;;;3.58;100.00;99124.89;1695600;83;21230;-84
2022/12/24 04:41:24;;;;;;;61.75;41.50;;;;;;;3.57;100.00;99121.41;1712562;81;21034;-90
2022/12/24 04:43:52;;;;;;;58.30;40.25;;;;;;;3.53;100.00;99106.94;1711998;83;20978;-80
2022/12/24 04:46:22;;;;;;;59.45;41.20;;;;;;;3.53;100.00;99107.45;1695530;83;20994;-82
2022/12/24 04:48:50;;;;;;;58.48;41.77;;;;;;;3.54;100.00;99117.06;1711626;83;21088;-81
2022/12/24 04:51:20;;;;;;;52.33;37.05;;;;;;;3.58;100.00;99118.25;1713225;81;21204;-80
2022/12/24 04:53:47;;;;;;;66.67;43.68;;;;;;;3.63;100.00;99123.21;1711851;83;20987;-88
2022/12/24 04:56:20;;;;;;;54.63;39.30;;;;;;;3.68;100.00;99114.06;1712227;83;20983;-88
2022/12/24 04:58:48;;;;;;;55.78;40.00;;;;;;;3.75;100.00;99112.65;1711976;83;21341;-88
2022/12/24 05:01:24;;;;;;;61.05;43.70;;;;;;;3.77;100.00;99117.24;1712458;81;21067;-87
2022/12/24 05:03:51;;;;;;;55.60;40.52;;;;;;;3.73;100.00;99115.55;1711968;83;21936;-89
2022/12/24 05:06:22;;;;;;;59.75;42.40;;;;;;;3.73;100.00;99113.41;1695520;83;22124;-88
2022/12/24 05:08:53;;;;;;;59.93;42.13;;;;;;;3.72;100.00;99109.92;1712364;83;21539;-85
2022/12/24 05:11:19;;;;;;;56.92;38.50;;;;;;;3.78;100.00;99111.72;1675567;83;21051;-90
2022/12/24 05:13:46;;;;;;;59.40;38.98;;;;;;;3.84;99.99;99112.66;1669359;86;21059;-88
2022/12/24 05:16:16;;;;;;;59.35;40.05;;;;;;;3.87;99.65;99115.71;1669195;86;21099;-91
2022/12/24 05:18:44;;;;;;;65.20;44.77;;;;;;;3.87;99.18;99112.23;1669774;85;21000;-93
2022/12/24 05:21:14;;;;;;;55.23;39.30;;;;;;;3.88;99.06;99113.86;1689108;83;20959;-93
2022/12/24 05:26:41;;;;;;;58.95;39.90;;;;;;;3.90;98.54;99114.44;1703275;84;21094;-91
2022/12/24 05:29:11;;;;;;;56.35;40.28;;;;;;;3.89;98.42;99114.14;1703305;84;21034;-93
2022/12/24 05:31:39;;;;;;;57.13;42.45;;;;;;;3.88;98.14;99108.03;1703586;83;20971;-89
2022/12/24 05:34:07;;;;;;;56.92;39.98;;;;;;;3.88;98.00;99114.69;1704611;82;21097;-88
2022/12/24 05:36:34;;;;;;;59.77;43.17;;;;;;;3.91;98.00;99117.41;1703366;84;21053;-86
2022/12/24 05:39:02;;;;;;;53.45;38.05;;;;;;;3.89;97.75;99118.95;1704276;82;21122;-89
2022/12/24 05:41:31;;;;;;;67.50;42.83;;;;;;;3.90;97.68;99110.45;1662790;85;21856;-88
2022/12/24 05:43:58;;;;;;;60.48;40.08;;;;;;;3.87;97.46;99114.38;1688467;83;21027;-76
2022/12/24 05:46:25;;;;;;;58.55;40.88;;;;;;;3.86;97.56;99107.42;1688216;83;21014;-75
2022/12/24 05:48:51;;;;;;;60.63;38.23;;;;;;;3.87;97.55;99105.58;1688458;84;21039;-77
2022/12/24 05:51:21;;;;;;;58.73;40.90;;;;;;;3.90;97.60;99113.11;1696573;83;21063;-76
2022/12/24 05:53:47;;;;;;;58.30;37.38;;;;;;;3.95;97.58;99106.61;1702210;84;21159;-75
2022/12/24 05:56:18;;;;;;;54.70;37.53;;;;;;;3.99;97.42;99111.78;1702387;84;21062;-77
2022/12/24 05:58:45;;;;;;;57.08;39.67;;;;;;;3.99;96.96;99114.95;1702268;84;20928;-78
2022/12/24 06:01:12;;;;;;;51.37;35.33;;;;;;;3.91;96.83;99114.23;1703777;82;21046;-77
2022/12/24 06:03:39;;;;;;;57.60;40.73;;;;;;;3.92;97.03;99115.05;1701556;83;21077;-78
2022/12/24 06:06:11;;;;;;;59.58;40.20;;;;;;;3.94;97.08;99131.58;1708584;83;20960;-75
2022/12/24 06:08:37;;;;;;;60.23;42.85;;;;;;;3.95;96.86;99126.05;1717040;83;21019;-79
2022/12/24 06:11:07;;;;;;;59.83;42.00;;;;;;;3.94;96.85;99137.72;1711041;83;21012;-78
2022/12/24 06:13:34;;;;;;;62.58;45.88;;;;;;;3.98;97.03;99139.95;1703752;83;21078;-77
2022/12/24 06:16:03;;;;;;;66.07;45.33;;;;;;;4.01;96.88;99142.16;1655525;85;21106;-78
2022/12/24 06:18:31;;;;;;;66.22;47.35;;;;;;;4.06;96.76;99147.13;1687440;84;21334;-78
2022/12/24 06:20:58;;;;;;;73.47;47.53;;;;;;;4.07;96.54;99144.77;1679009;85;20991;-77
2022/12/24 06:23:25;;;;;;;68.92;46.75;;;;;;;4.10;96.39;99152.30;1653916;86;21038;-73
2022/12/24 06:25:55;;;;;;;66.70;44.42;;;;;;;4.12;96.34;99149.42;1626354;87;21503;-75
2022/12/24 06:28:21;;;;;;;62.55;43.87;;;;;;;4.17;96.29;99151.69;1626468;88;21109;-75
2022/12/24 06:30:49;;;;;;;60.50;41.08;;;;;;;4.23;96.09;99139.35;1633550;85;21423;-79
2022/12/24 06:33:15;;;;;;;64.30;43.50;;;;;;;4.27;95.74;99144.52;1654916;86;21162;-78
2022/12/24 06:35:44;;;;;;;66.35;43.52;;;;;;;4.27;95.52;99143.19;1645007;86;21548;-76
2022/12/24 06:38:10;;;;;;;66.92;42.55;;;;;;;4.27;95.33;99157.83;1667964;86;21087;-79
2022/12/24 06:40:41;;;;;;;59.65;40.78;;;;;;;4.26;95.12;99146.39;1646125;85;21095;-76
2022/12/24 06:43:09;;;;;;;62.10;41.37;;;;;;;4.25;94.89;99154.59;1654345;86;21122;-78
2022/12/24 06:45:35;;;;;;;67.70;46.02;;;;;;;4.22;94.77;99158.49;1654198;86;21629;-79
2022/12/24 06:48:02;;;;;;;65.03;43.65;;;;;;;4.18;94.85;99148.00;1654490;86;21054;-76
2022/12/24 06:50:29;;;;;;;59.10;40.75;;;;;;;4.20;94.89;99155.77;1654346;86;21077;-79
2022/12/24 06:52:55;;;;;;;61.13;41.63;;;;;;;4.23;94.99;99156.66;1654792;85;22216;-75
2022/12/24 06:55:22;;;;;;;62.25;42.38;;;;;;;4.29;94.98;99153.11;1664789;86;21243;-76
2022/12/24 06:57:48;;;;;;;62.43;42.48;;;;;;;4.33;94.77;99148.96;1668008;86;20992;-76
2022/12/24 07:00:16;;;;;;;57.73;40.80;;;;;;;4.33;94.42;99156.44;1668089;86;21036;-75
2022/12/24 07:02:45;;;;;;;58.90;41.50;;;;;;;4.34;94.36;99162.06;1655370;85;21023;-78
2022/12/24 07:05:11;;;;;;;61.65;41.58;;;;;;;4.31;94.25;99154.53;1655990;86;21143;-76
2022/12/24 07:07:39;;;;;;;74.58;46.65;;;;;;;4.31;94.19;99153.20;1672561;85;21155;-76
2022/12/24 07:10:08;;;;;;;63.70;43.90;;;;;;;4.31;94.26;99155.86;1646139;87;22219;-79
2022/12/24 07:12:35;;;;;;;64.58;44.53;;;;;;;4.37;94.46;99162.94;1650637;84;21082;-79
2022/12/24 07:15:02;;;;;;;60.23;42.38;;;;;;;4.45;94.31;99164.50;1653485;85;21014;-79
2022/12/24 07:17:29;;;;;;;58.98;42.08;;;;;;;4.49;93.98;99164.34;1670485;84;21583;-74
2022/12/24 07:19:55;;;;;;;65.57;43.78;;;;;;;4.50;93.79;99160.66;1670503;85;21229;-76
2022/12/24 07:22:22;;;;;;;60.08;41.10;;;;;;;4.51;93.62;99171.57;1665356;85;20980;-76
2022/12/24 07:24:50;;;;;;;65.52;43.15;;;;;;;4.50;93.44;99170.48;1665087;85;21004;-77
2022/12/24 07:27:17;;;;;;;69.75;44.58;;;;;;;4.46;93.37;99172.76;1673693;85;21023;-75
2022/12/24 07:29:43;;;;;;;62.58;43.65;;;;;;;4.46;93.41;99158.11;1683086;85;21060;-75
2022/12/24 07:32:10;;;;;;;60.80;41.42;;;;;;;4.49;93.51;99164.34;1670583;84;21116;-75
2022/12/24 07:34:38;;;;;;;57.85;39.20;;;;;;;4.56;93.67;99164.25;1663784;86;20999;-77
2022/12/24 07:37:06;;;;;;;65.22;46.05;;;;;;;4.62;93.50;99162.84;1664721;86;20969;-78
2022/12/24 07:39:33;;;;;;;66.17;43.90;;;;;;;4.67;93.31;99168.31;1666161;85;21049;-75
2022/12/24 07:41:59;;;;;;;61.37;41.08;;;;;;;4.71;93.06;99161.49;1669480;84;21130;-75
2022/12/24 07:44:27;;;;;;;55.23;41.00;;;;;;;4.73;92.86;99168.75;1640237;86;21161;-77
2022/12/24 07:46:54;;;;;;;59.85;44.95;;;;;;;4.74;92.66;99165.06;1667943;84;21029;-75
2022/12/24 07:49:20;;;;;;;67.22;45.78;;;;;;;4.73;92.52;99162.09;1675467;85;20998;-74
2022/12/24 07:51:46;;;;;;;62.13;43.50;;;;;;;4.75;92.63;99165.84;1722032;83;21041;-76
2022/12/24 07:54:17;;;;;;;67.03;43.68;;;;;;;4.78;92.69;99166.23;1702771;83;21062;-86
2022/12/24 07:56:43;;;;;;;56.63;40.17;;;;;;;4.83;92.60;99171.70;1700106;83;21782;-76
2022/12/24 07:59:13;;;;;;;56.13;40.85;;;;;;;4.91;92.67;99166.56;1698088;84;21328;-78
2022/12/24 08:01:40;;;;;;;58.28;42.08;;;;;;;5.00;92.49;99163.05;1694760;84;21063;-77
2022/12/24 08:04:06;;;;;;;55.90;39.13;;;;;;;5.04;91.91;99159.70;1696833;83;21595;-77
2022/12/24 08:06:33;;;;;;;52.93;37.58;;;;;;;5.03;91.51;99154.11;1699137;83;20983;-75
2022/12/24 08:09:01;;;;;;;58.40;38.65;;;;;;;5.00;91.13;99156.39;1700609;83;22539;-74
2022/12/24 08:11:28;;;;;;;53.90;38.70;;;;;;;4.91;91.04;99161.75;1697711;84;22278;-77
2022/12/24 08:13:54;;;;;;;61.45;41.08;;;;;;;4.83;91.34;99154.90;1687643;83;20985;-76
2022/12/24 08:16:21;;;;;;;57.27;39.67;;;;;;;4.78;91.64;99160.91;1697280;83;22284;-74
2022/12/24 08:18:48;;;;;;;59.08;40.52;;;;;;;4.74;91.92;99158.40;1700857;84;21086;-77
2022/12/24 08:21:15;;;;;;;59.73;42.33;;;;;;;4.73;92.03;99154.10;1700680;84;21806;-76
2022/12/24 08:23:41;;;;;;;63.35;39.78;;;;;;;4.67;91.74;99152.33;1700117;84;21050;-76
2022/12/24 08:26:09;;;;;;;59.15;42.98;;;;;;;4.57;92.03;99153.89;1699955;83;20994;-76
2022/12/24 08:28:36;;;;;;;59.65;41.90;;;;;;;4.50;92.33;99155.84;1684191;83;20998;-77
2022/12/24 08:31:04;;;;;;;60.28;40.58;;;;;;;4.49;92.60;99146.22;1688359;85;21114;-75
2022/12/24 08:33:31;;;;;;;52.23;36.93;;;;;;;4.56;93.04;99145.61;1697354;83;21143;-78
2022/12/24 08:36:01;;;;;;;60.23;41.02;;;;;;;4.66;92.92;99142.71;1700088;84;21053;-81
2022/12/24 08:38:28;;;;;;;58.02;41.45;;;;;;;4.64;92.22;99136.00;1664415;85;21109;-73
2022/12/24 08:40:57;;;;;;;55.25;40.83;;;;;;;4.61;92.12;99143.90;1677786;84;21060;-87
2022/12/24 08:43:26;;;;;;;57.75;40.20;;;;;;;4.61;92.35;99141.23;1698780;83;21129;-90
2022/12/24 08:45:53;;;;;;;52.98;37.35;;;;;;;4.66;92.39;99140.56;1694504;83;21284;-81
2022/12/24 08:48:24;;;;;;;53.80;37.88;;;;;;;4.69;92.10;99137.47;1700606;83;21069;-86
2022/12/24 08:50:51;;;;;;;55.43;36.88;;;;;;;4.65;91.87;99134.42;1700341;84;21121;-83
2022/12/24 08:53:17;;;;;;;59.60;40.50;;;;;;;4.61;91.92;99132.43;1681448;83;21037;-85
2022/12/24 08:55:45;;;;;;;52.75;37.75;;;;;;;4.61;92.24;99131.09;1699714;83;21070;-91
2022/12/24 08:58:11;;;;;;;56.60;40.98;;;;;;;4.68;92.36;99122.52;1692021;83;21746;-83
2022/12/24 09:00:39;;;;;;;65.60;42.67;;;;;;;4.68;92.07;99123.34;1696294;84;21595;-80
2022/12/24 09:03:06;;;;;;;59.83;40.03;;;;;;;4.65;92.06;99129.64;1670536;83;21098;-81
2022/12/24 09:05:34;;;;;;;53.05;37.08;;;;;;;4.62;92.23;99135.39;1690498;83;20928;-81
2022/12/24 09:08:00;;;;;;;63.98;44.73;;;;;;;4.61;92.47;99141.23;1656903;85;21061;-77
2022/12/24 09:10:27;;;;;;;58.83;42.55;;;;;;;4.64;92.76;99141.33;1671650;84;21244;-79
2022/12/24 09:12:54;;;;;;;60.63;43.35;;;;;;;4.66;92.79;99140.56;1678549;83;21102;-77
2022/12/24 09:15:20;;;;;;;64.55;45.12;;;;;;;4.68;92.96;99141.98;1691556;83;21126;-80
2022/12/24 09:17:47;;;;;;;70.00;47.25;;;;;;;4.69;92.82;99135.62;1698079;84;21106;-81
2022/12/24 09:20:13;;;;;;;71.28;48.25;;;;;;;4.69;92.80;99139.61;1699890;83;21519;-80
2022/12/24 09:22:40;;;;;;;71.15;49.73;;;;;;;4.67;92.76;99139.02;1680096;83;21089;-78
2022/12/24 09:25:09;;;;;;;70.40;47.75;;;;;;;4.61;92.88;99135.91;1691942;84;21030;-80
2022/12/24 09:27:36;;;;;;;66.92;46.23;;;;;;;4.59;93.08;99135.34;1674656;84;21568;-80
2022/12/24 09:30:05;;;;;;;59.40;42.33;;;;;;;4.67;93.41;99148.34;1663585;86;21525;-80
2022/12/24 09:32:32;;;;;;;63.75;43.83;;;;;;;4.76;93.11;99149.64;1685601;83;21007;-79
2022/12/24 09:34:59;;;;;;;67.22;45.12;;;;;;;4.75;92.94;99157.34;1634958;86;21106;-77
2022/12/24 09:37:26;;;;;;;63.68;43.33;;;;;;;4.77;93.08;99157.94;1644392;86;21093;-74
2022/12/24 09:39:53;;;;;;;63.33;42.88;;;;;;;4.86;93.16;99152.28;1631932;87;21107;-80
2022/12/24 09:42:49;;;;;;;66.55;44.25;;;;;;;4.94;92.97;99151.44;1620467;86;21544;-80
2022/12/24 09:45:24;;;;;;;67.42;44.13;;;;;;;5.00;92.80;99151.06;1658657;85;21655;-77
2022/12/24 09:47:59;;;;;;;60.00;43.33;;;;;;;5.05;92.53;99167.19;1646495;87;21371;-75
2022/12/24 09:50:43;;;;;;;62.23;42.17;;;;;;;5.10;92.20;99162.80;1630149;87;21493;-76
2022/12/24 09:53:42;;;;;;;52.35;38.08;;;;;;;5.17;92.08;99152.88;1630579;87;21083;-75
2022/12/24 09:56:19;;;;;;;60.55;41.45;;;;;;;5.27;92.00;99154.44;1650925;86;20990;-74
2022/12/24 09:58:54;;;;;;;62.93;42.38;;;;;;;5.34;91.39;99153.02;1647097;87;21708;-75
2022/12/24 10:01:21;;;;;;;57.35;38.00;;;;;;;5.36;91.01;99153.61;1629669;87;21106;-78
2022/12/24 10:03:50;;;;;;;51.70;37.45;;;;;;;5.39;90.77;99149.66;1620887;87;21038;-74
2022/12/24 10:06:36;;;;;;;62.30;42.03;;;;;;;5.37;90.34;99155.20;1634855;87;21122;-78
2022/12/24 10:09:32;;;;;;;56.90;41.28;;;;;;;5.33;90.26;99154.05;1639161;86;21146;-80
2022/12/24 10:12:16;;;;;;;58.78;42.93;;;;;;;5.32;90.28;99151.62;1645064;87;21125;-79
2022/12/24 10:15:22;;;;;;;63.13;44.40;;;;;;;5.31;90.18;99161.99;1630946;88;21631;-79
2022/12/24 10:18:32;;;;;;;56.33;39.35;;;;;;;5.32;90.36;99153.78;1646238;87;20974;-81
2022/12/24 10:21:21;;;;;;;65.80;43.52;;;;;;;5.39;90.28;99151.80;1635214;86;21059;-78
2022/12/24 10:23:56;;;;;;;63.78;43.40;;;;;;;5.39;89.88;99148.32;1636278;84;21070;-74
2022/12/24 10:26:47;;;;;;;65.72;46.53;;;;;;;5.35;89.79;99155.97;1641784;86;21025;-74
2022/12/24 10:29:17;;;;;;;72.37;45.03;;;;;;;5.32;89.65;99159.11;1617187;87;21642;-73
2022/12/24 10:32:10;;;;;;;62.73;45.98;;;;;;;5.28;89.70;99152.58;1622740;87;21011;-77
2022/12/24 10:34:48;;;;;;;63.73;44.98;;;;;;;5.30;89.87;99163.03;1626750;87;21118;-77
2022/12/24 10:37:18;;;;;;;74.95;49.55;;;;;;;5.30;89.85;99161.18;1625863;87;21133;-74
2022/12/24 10:39:44;;;;;;;61.92;43.75;;;;;;;5.34;90.14;99162.34;1630323;87;21177;-77
2022/12/24 10:42:11;;;;;;;61.10;44.42;;;;;;;5.41;90.05;99164.40;1628231;87;21322;-76
2022/12/24 10:44:38;;;;;;;70.72;48.83;;;;;;;5.44;89.62;99166.59;1613917;87;21066;-80
2022/12/24 10:47:07;;;;;;;74.22;51.33;;;;;;;5.45;89.56;99162.89;1641557;86;21034;-77
2022/12/24 10:50:06;;;;;;;73.90;49.18;;;;;;;5.52;89.62;99170.77;1615214;88;21049;-81
2022/12/24 10:52:36;;;;;;;63.78;47.78;;;;;;;5.58;89.40;99165.34;1624169;87;21598;-80
2022/12/24 10:55:23;;;;;;;63.63;47.33;;;;;;;5.62;88.79;99170.50;1643226;86;21279;-81
2022/12/24 10:58:06;;;;;;;69.27;47.33;;;;;;;5.59;88.83;99164.83;1635272;87;21026;-80
2022/12/24 11:00:35;;;;;;;74.77;50.58;;;;;;;5.61;89.03;99170.75;1641451;87;21112;-75
2022/12/24 11:03:33;;;;;;;68.72;48.45;;;;;;;5.59;88.97;99168.82;1639959;86;21115;-76
2022/12/24 11:06:12;;;;;;;68.12;46.83;;;;;;;5.58;89.20;99167.19;1613899;87;21082;-82
2022/12/24 11:08:45;;;;;;;66.35;46.02;;;;;;;5.58;89.28;99165.86;1605545;87;22339;-87
2022/12/24 11:11:18;;;;;;;73.07;52.62;;;;;;;5.56;89.39;99170.08;1616742;86;21627;-78
2022/12/24 11:13:56;;;;;;;78.17;51.18;;;;;;;5.46;89.65;99173.86;1608649;87;21060;-78
2022/12/24 11:16:34;;;;;;;75.95;51.18;;;;;;;5.45;90.35;99168.75;1619811;87;21078;-78
2022/12/24 11:19:04;;;;;;;82.78;56.55;;;;;;;5.44;90.81;99165.78;1641922;87;21124;-83
2022/12/24 11:21:38;;;;;;;78.70;54.73;;;;;;;5.42;91.34;99170.00;1621510;87;21146;-72
2022/12/24 11:24:19;;;;;;;71.28;49.63;;;;;;;5.50;91.80;99174.20;1665384;84;21100;-76
2022/12/24 11:26:46;;;;;;;72.78;50.30;;;;;;;5.53;91.99;99171.88;1631433;87;21050;-76
2022/12/24 11:29:22;;;;;;;78.90;52.70;;;;;;;5.52;91.98;99172.10;1618100;88;21098;-77
2022/12/24 11:31:55;;;;;;;82.10;55.92;;;;;;;5.45;92.55;99162.89;1613459;88;21098;-78
2022/12/24 11:34:27;;;;;;;82.08;54.38;;;;;;;5.38;93.12;99173.35;1630548;85;21214;-77
2022/12/24 11:37:18;;;;;;;84.28;55.43;;;;;;;5.29;93.78;99171.55;1654019;86;21001;-81
2022/12/24 11:39:54;;;;;;;79.92;51.42;;;;;;;5.25;94.33;99183.20;1617344;88;21016;-76
2022/12/24 11:42:37;;;;;;;69.82;49.03;;;;;;;5.32;94.85;99190.29;1663676;85;21147;-82
2022/12/24 11:45:09;;;;;;;82.10;54.08;;;;;;;5.37;94.84;99187.75;1644625;85;21123;-75
2022/12/24 11:47:39;;;;;;;73.83;47.33;;;;;;;5.38;94.66;99188.83;1660776;85;21233;-83
2022/12/24 11:50:40;;;;;;;;;;;;;;;5.41;94.92;99189.73;1670418;86;21069;-87
2022/12/24 11:53:17;;;;;;;79.62;53.20;;;;;;;5.43;94.71;99184.97;1640082;84;20192;-76
2022/12/24 11:55:55;;;;;;;76.82;49.18;;;;;;;5.44;95.03;99183.93;1641471;85;21026;-76
2022/12/24 11:58:44;;;;;;;77.53;51.45;;;;;;;5.47;94.71;99181.31;1668972;84;21607;-74
2022/12/24 12:01:25;;;;;;;71.50;49.80;;;;;;;5.49;94.81;99188.58;1639589;86;21168;-71
2022/12/24 12:04:01;;;;;;;72.32;50.10;;;;;;;5.50;94.85;99188.36;1617001;87;21036;-79
2022/12/24 12:06:41;;;;;;;74.50;52.93;;;;;;;5.52;95.01;99189.44;1646165;86;21051;-74
2022/12/24 12:09:30;;;;;;;72.58;49.18;;;;;;;5.56;95.36;99189.30;1645565;85;21523;-75
2022/12/24 12:12:08;;;;;;;72.95;49.05;;;;;;;5.56;95.13;99191.97;1620254;87;21164;-75
2022/12/24 12:14:46;;;;;;;73.02;45.20;;;;;;;5.52;94.64;99186.77;1646098;85;21118;-74
2022/12/24 12:17:51;;;;;;;75.22;51.00;;;;;;;5.52;94.79;99190.77;1624373;85;21065;-77
2022/12/24 12:20:36;;;;;;;81.05;50.25;;;;;;;5.51;94.69;99194.51;1624895;87;21061;-80
2022/12/24 12:23:43;;;;;;;72.03;47.95;;;;;;;5.53;94.61;99193.22;1619256;87;21140;-80
2022/12/24 12:26:20;;;;;;;69.65;46.98;;;;;;;5.57;94.36;99192.23;1645896;85;21119;-80
2022/12/24 12:28:54;;;;;;;72.12;50.48;;;;;;;5.55;94.05;99191.15;1645752;87;21953;-80
2022/12/24 12:31:30;;;;;;;73.72;52.05;;;;;;;5.48;94.02;99197.09;1664524;86;21590;-79
2022/12/24 12:34:20;;;;;;;77.20;55.35;;;;;;;5.49;94.44;99197.91;1664761;86;21082;-81
2022/12/24 12:37:09;;;;;;;66.17;48.30;;;;;;;5.55;94.75;99202.34;1648787;85;21071;-82
2022/12/24 12:39:37;;;;;;;64.70;45.43;;;;;;;5.61;94.93;99209.43;1633257;87;21605;-77
2022/12/24 12:42:33;;;;;;;75.08;46.90;;;;;;;5.61;94.59;99210.77;1647604;87;21802;-81
2022/12/24 12:45:30;;;;;;;73.92;49.10;;;;;;;5.62;94.47;99212.37;1664648;85;21115;-81
2022/12/24 12:48:35;;;;;;;71.67;48.17;;;;;;;5.63;94.39;99214.00;1640831;87;21662;-78
2022/12/24 12:51:08;;;;;;;77.65;49.88;;;;;;;5.63;94.39;99216.66;1640369;87;21033;-77
2022/12/24 12:54:03;;;;;;;65.25;45.35;;;;;;;5.61;94.32;99216.89;1640782;87;21544;-80
2022/12/24 12:56:32;;;;;;;70.78;48.38;;;;;;;5.64;94.49;99213.78;1633567;86;21252;-80
2022/12/24 12:59:24;;;;;;;67.10;47.83;;;;;;;5.66;94.24;99209.01;1604862;87;21585;-77
2022/12/24 13:02:30;;;;;;;75.22;51.55;;;;;;;5.67;94.04;99213.83;1664316;86;21063;-79
2022/12/24 13:05:33;;;;;;;71.07;47.53;;;;;;;5.68;94.00;99224.80;1664699;85;20971;-79
2022/12/24 13:08:43;;;;;;;76.65;51.55;;;;;;;5.66;94.13;99221.53;1603351;87;21156;-81
2022/12/24 13:11:38;;;;;;;81.95;54.38;;;;;;;5.66;94.23;99229.02;1620552;87;21272;-80
2022/12/24 13:14:19;;;;;;;74.87;48.38;;;;;;;5.73;94.41;99228.92;1598966;88;21131;-79
2022/12/24 13:17:18;;;;;;;75.87;52.13;;;;;;;5.77;94.23;99227.41;1633913;86;21051;-79
2022/12/24 13:20:19;;;;;;;70.10;48.48;;;;;;;5.75;93.92;99230.03;1643571;87;21044;-79
2022/12/24 13:23:00;;;;;;;67.45;49.38;;;;;;;5.72;93.66;99233.95;1643616;86;21104;-81
2022/12/24 13:25:39;;;;;;;66.05;45.85;;;;;;;5.69;93.67;99231.77;1582624;88;21108;-79
2022/12/24 13:28:27;;;;;;;70.32;47.25;;;;;;;5.66;93.57;99238.87;1600375;89;20965;-78
2022/12/24 13:31:20;;;;;;;70.67;50.50;;;;;;;5.65;93.63;99243.42;1598960;88;21054;-82
2022/12/24 13:33:49;;;;;;;62.90;46.05;;;;;;;5.67;93.58;99248.50;1643478;87;21075;-79
2022/12/24 13:36:17;;;;;;;60.73;45.70;;;;;;;5.66;93.48;99243.69;1634971;86;21069;-80
2022/12/24 13:38:56;;;;;;;67.22;45.95;;;;;;;5.66;93.32;99246.87;1583629;88;21949;-81
2022/12/24 13:41:39;;;;;;;71.82;47.75;;;;;;;5.63;93.15;99243.34;1648067;87;21232;-78
2022/12/24 13:44:14;;;;;;;67.75;44.50;;;;;;;5.60;93.13;99241.95;1648356;86;21112;-79
2022/12/24 13:47:17;;;;;;;65.42;46.85;;;;;;;5.57;93.15;99238.39;1637243;86;21120;-82
2022/12/24 13:49:47;;;;;;;78.02;51.02;;;;;;;5.58;93.26;99241.88;1644240;87;21130;-82
2022/12/24 13:52:20;;;;;;;68.97;46.08;;;;;;;5.59;93.53;99242.99;1643997;87;22306;-78
2022/12/24 13:55:08;;;;;;;72.30;50.67;;;;;;;5.67;93.40;99254.66;1643015;87;21055;-80
2022/12/24 13:57:56;;;;;;;84.67;56.23;;;;;;;5.67;93.02;99251.99;1615678;86;20986;-83
2022/12/24 14:00:42;;;;;;;87.15;55.40;;;;;;;5.65;92.87;99258.09;1634995;87;21056;-79